Time;durP1;ratioP1;P1;durP2;ratioP2;P2;SDS_P1;SDS_P2;PMS_P1;PMS_P2;Temp;Humidity;BMP_temperature;BMP_pressure;BME280_temperature;BME280_humidity;BME280_pressure;Samples;Min_cycle;Max_cycle;Signal;HPM_P1;HPM_P2
2021/11/15 00:02:07;;;;;;;85.53;39.48;;;;;;;4.96;99.00;102090.89;1596812;85;27617;-84
2021/11/15 00:04:34;;;;;;;83.58;37.33;;;;;;;4.97;98.98;102087.25;1626594;86;26062;-83
2021/11/15 00:07:01;;;;;;;90.83;38.42;;;;;;;4.98;98.97;102099.11;1658005;86;25528;-84
2021/11/15 00:09:30;;;;;;;90.87;40.95;;;;;;;5.01;99.00;102088.24;1664818;85;26630;-83
2021/11/15 00:11:57;;;;;;;80.95;38.48;;;;;;;5.03;98.97;102088.97;1633952;86;25442;-83
2021/11/15 00:14:24;;;;;;;84.37;37.93;;;;;;;5.07;98.94;102089.61;1616752;86;27543;-83
2021/11/15 00:16:51;;;;;;;86.90;36.75;;;;;;;5.09;98.92;102095.14;1638596;86;25936;-83
2021/11/15 00:19:18;;;;;;;87.15;38.42;;;;;;;5.09;98.86;102096.47;1663565;86;25813;-84
2021/11/15 00:21:45;;;;;;;83.35;36.48;;;;;;;5.10;98.78;102102.64;1617593;87;25952;-83
2021/11/15 00:24:13;;;;;;;93.65;38.23;;;;;;;5.10;98.78;102102.64;1609429;85;25885;-84
2021/11/15 00:26:40;;;;;;;91.00;39.05;;;;;;;5.09;98.79;102103.62;1674210;85;27228;-85
2021/11/15 00:29:07;;;;;;;85.28;37.00;;;;;;;5.09;98.81;102103.11;1671546;85;25923;-83
2021/11/15 00:31:34;;;;;;;88.07;38.08;;;;;;;5.08;98.75;102104.56;1627706;86;25941;-83
2021/11/15 00:34:01;;;;;;;84.13;37.90;;;;;;;5.05;98.75;102112.75;1616696;86;25933;-84
2021/11/15 00:36:28;;;;;;;81.97;37.38;;;;;;;5.07;98.87;102124.95;1658826;86;25841;-83
2021/11/15 00:38:56;;;;;;;81.08;37.05;;;;;;;5.10;98.95;102116.77;1658432;85;27634;-83
2021/11/15 00:41:23;;;;;;;84.95;37.90;;;;;;;5.12;98.97;102117.98;1631079;85;25849;-85
2021/11/15 00:43:51;;;;;;;87.53;36.03;;;;;;;5.12;98.88;102114.84;1649613;85;25402;-84
2021/11/15 00:46:18;;;;;;;76.50;35.58;;;;;;;5.13;98.91;102117.03;1673880;84;25861;-85
2021/11/15 00:48:45;;;;;;;81.12;36.40;;;;;;;5.12;98.86;102119.30;1675968;84;25930;-83
2021/11/15 00:51:12;;;;;;;84.00;35.58;;;;;;;5.12;98.91;102116.17;1642557;85;26971;-84
2021/11/15 00:53:39;;;;;;;85.07;37.25;;;;;;;5.15;98.96;102116.44;1642205;86;26598;-85
2021/11/15 00:56:07;;;;;;;84.03;36.58;;;;;;;5.14;98.85;102116.91;1665566;84;25971;-83
2021/11/15 00:58:34;;;;;;;80.77;36.13;;;;;;;5.14;98.90;102114.25;1664573;84;25839;-83
2021/11/15 01:01:02;;;;;;;93.70;40.98;;;;;;;5.16;98.96;102112.33;1626259;85;26053;-83
2021/11/15 01:03:29;;;;;;;88.50;38.48;;;;;;;5.18;98.91;102110.40;1652684;84;27381;-84
2021/11/15 01:05:57;;;;;;;82.82;36.90;;;;;;;5.17;98.84;102107.39;1663418;86;25941;-83
2021/11/15 01:08:24;;;;;;;81.55;36.77;;;;;;;5.17;98.86;102113.18;1664298;84;25856;-83
2021/11/15 01:10:52;;;;;;;72.87;35.65;;;;;;;5.14;98.86;102109.41;1609052;86;26556;-83
2021/11/15 01:13:22;;;;;;;74.70;33.50;;;;;;;5.10;98.95;102106.62;1631946;84;25870;-84
2021/11/15 01:15:49;;;;;;;77.80;34.95;;;;;;;5.10;99.11;102105.30;1675745;84;28069;-83
2021/11/15 01:18:18;;;;;;;74.12;33.30;;;;;;;5.10;99.14;102104.83;1671569;84;25831;-83
2021/11/15 01:20:45;;;;;;;75.30;35.40;;;;;;;5.12;99.22;102108.21;1661629;84;25842;-84
2021/11/15 01:23:12;;;;;;;76.35;35.40;;;;;;;5.12;99.22;102105.55;1671493;84;26614;-85
2021/11/15 01:25:40;;;;;;;75.12;32.42;;;;;;;5.14;99.21;102108.09;1677535;84;25541;-84
2021/11/15 01:28:08;;;;;;;71.35;34.30;;;;;;;5.16;99.24;102106.16;1636692;86;27532;-84
2021/11/15 01:30:36;;;;;;;71.35;34.63;;;;;;;5.18;99.27;102107.74;1638424;85;25838;-84
2021/11/15 01:33:04;;;;;;;67.50;30.72;;;;;;;5.21;99.30;102107.52;1617697;86;26538;-83
2021/11/15 01:35:31;;;;;;;62.78;30.02;;;;;;;5.23;99.20;102105.59;1664366;85;25898;-84
2021/11/15 01:37:58;;;;;;;55.50;27.40;;;;;;;5.22;99.16;102109.20;1661062;86;25788;-82
2021/11/15 01:40:29;;;;;;;62.05;29.80;;;;;;;5.21;99.22;102104.02;1625613;85;27497;-83
2021/11/15 01:42:57;;;;;;;;;;;;;;;5.21;99.28;102106.67;1631702;85;26113;-84
2021/11/15 01:45:27;;;;;;;52.17;27.37;;;;;;;5.20;99.28;102108.95;1662477;85;25867;-84
2021/11/15 01:47:58;;;;;;;53.35;26.82;;;;;;;5.17;99.45;102103.88;1619587;86;25786;-83
2021/11/15 01:50:28;;;;;;;54.03;28.55;;;;;;;5.18;99.48;102113.05;1632216;85;25912;-84
2021/11/15 01:52:57;;;;;;;56.73;27.60;;;;;;;5.20;99.57;102116.91;1650806;85;27595;-83
2021/11/15 01:55:26;;;;;;;55.40;26.75;;;;;;;5.20;99.59;102119.57;1649740;86;25811;-83
2021/11/15 01:57:54;;;;;;;58.65;27.40;;;;;;;5.20;99.56;102119.09;1630007;86;25839;-84
2021/11/15 02:00:49;;;;;;;59.45;27.37;;;;;;;5.23;99.63;102122.86;1642016;86;25983;-84
2021/11/15 02:03:19;;;;;;;54.88;26.75;;;;;;;5.25;99.68;102123.59;1605538;86;25647;-84
2021/11/15 02:05:47;;;;;;;51.65;24.85;;;;;;;5.27;99.65;102122.14;1662956;85;27613;-84
2021/11/15 02:08:15;;;;;;;53.05;26.20;;;;;;;5.29;99.66;102113.57;1611483;86;25883;-84
2021/11/15 02:10:43;;;;;;;52.48;24.90;;;;;;;5.31;99.70;102115.63;1627923;86;26583;-84
2021/11/15 02:13:16;;;;;;;45.33;24.07;;;;;;;5.32;99.65;102116.83;1624320;86;26543;-84
2021/11/15 02:15:45;;;;;;;45.48;23.42;;;;;;;5.33;99.62;102119.02;1667476;85;25944;-83
2021/11/15 02:18:12;;;;;;;49.48;24.23;;;;;;;5.32;99.57;102119.48;1651933;85;27592;-84
2021/11/15 02:20:56;;;;;;;44.00;22.93;;;;;;;5.34;99.65;102120.25;1648803;85;25897;-83
2021/11/15 02:23:26;;;;;;;53.98;23.45;;;;;;;5.37;99.58;102127.12;1625747;85;25990;-83
2021/11/15 02:25:55;;;;;;;42.85;22.65;;;;;;;5.33;99.57;102117.69;1648263;85;25960;-83
2021/11/15 02:28:29;;;;;;;40.30;22.40;;;;;;;5.34;99.64;102118.06;1617570;85;25913;-83
2021/11/15 02:30:57;;;;;;;43.58;20.45;;;;;;;5.34;99.70;102117.59;1658270;85;27526;-84
2021/11/15 02:33:25;;;;;;;38.15;20.72;;;;;;;5.34;99.72;102120.72;1626702;86;26420;-83
2021/11/15 02:35:52;;;;;;;41.73;20.80;;;;;;;5.32;99.72;102118.16;1666008;85;26249;-84
2021/11/15 02:38:20;;;;;;;37.95;20.30;;;;;;;5.33;99.77;102118.55;1634027;86;26647;-83
2021/11/15 02:40:47;;;;;;;38.20;20.12;;;;;;;5.34;99.82;102118.06;1634748;86;25558;-83
2021/11/15 02:43:14;;;;;;;33.75;19.23;;;;;;;5.35;99.82;102129.90;1663157;86;28084;-84
2021/11/15 02:45:41;;;;;;;38.50;19.37;;;;;;;5.35;99.82;102125.91;1661229;85;25703;-83
2021/11/15 02:48:08;;;;;;;37.75;19.77;;;;;;;5.37;99.87;102124.45;1631006;85;25902;-84
2021/11/15 02:50:36;;;;;;;36.48;18.82;;;;;;;5.36;99.86;102127.63;1627360;86;26032;-84
2021/11/15 02:53:07;;;;;;;38.88;19.27;;;;;;;5.38;99.92;102128.35;1639565;86;25407;-86
2021/11/15 02:55:36;;;;;;;37.08;19.37;;;;;;;5.38;99.91;102132.34;1659863;86;28344;-84
2021/11/15 02:58:07;;;;;;;34.05;19.30;;;;;;;5.38;99.92;102131.48;1655160;85;25836;-83
2021/11/15 03:00:45;;;;;;;31.87;17.37;;;;;;;5.38;99.96;102128.83;1655954;85;25370;-83
2021/11/15 03:03:14;;;;;;;31.97;18.57;;;;;;;5.39;99.95;102129.17;1636999;84;26568;-84
2021/11/15 03:05:45;;;;;;;38.67;18.98;;;;;;;5.41;100.00;102136.55;1639268;84;26697;-84
2021/11/15 03:08:15;;;;;;;31.62;16.93;;;;;;;5.42;99.99;102135.13;1643592;86;27535;-84
2021/11/15 03:10:44;;;;;;;34.33;18.37;;;;;;;5.43;100.00;102135.47;1664820;85;25679;-83
2021/11/15 03:13:14;;;;;;;37.63;18.10;;;;;;;5.43;99.95;102132.81;1621967;86;25867;-84
2021/11/15 03:15:46;;;;;;;31.12;16.93;;;;;;;5.43;100.00;102131.99;1675887;84;25953;-84
2021/11/15 03:18:23;;;;;;;37.42;17.50;;;;;;;5.41;100.00;102139.20;1615319;85;25882;-83
2021/11/15 03:20:57;;;;;;;36.20;17.85;;;;;;;5.40;100.00;102137.05;1655689;86;27637;-84
2021/11/15 03:23:28;;;;;;;31.33;17.65;;;;;;;5.41;100.00;102130.76;1644393;84;25680;-84
2021/11/15 03:25:58;;;;;;;34.10;17.52;;;;;;;5.40;100.00;102133.06;1665495;84;25787;-83
2021/11/15 03:28:32;;;;;;;36.10;17.48;;;;;;;5.43;100.00;102136.80;1628096;86;26193;-84
2021/11/15 03:31:06;;;;;;;34.03;17.50;;;;;;;5.43;100.00;102138.64;1645085;85;25947;-83
2021/11/15 03:33:35;;;;;;;43.08;17.45;;;;;;;5.44;100.00;102142.50;1634363;86;27436;-84
2021/11/15 03:36:04;;;;;;;36.10;17.98;;;;;;;5.46;100.00;102141.05;1630852;86;25892;-83
2021/11/15 03:38:32;;;;;;;38.20;17.30;;;;;;;5.48;100.00;102139.11;1639555;86;25899;-84
2021/11/15 03:40:59;;;;;;;34.50;16.32;;;;;;;5.49;100.00;102145.63;1631791;86;26027;-84
2021/11/15 03:43:26;;;;;;;36.95;17.42;;;;;;;5.49;100.00;102148.80;1641531;85;25789;-83
2021/11/15 03:45:54;;;;;;;34.70;16.77;;;;;;;5.47;100.00;102140.91;1667576;85;27407;-83
2021/11/15 03:48:21;;;;;;;37.42;17.67;;;;;;;5.48;100.00;102145.75;1626319;86;25864;-83
2021/11/15 03:50:54;;;;;;;41.08;18.40;;;;;;;5.51;100.00;102145.54;1601883;87;26111;-83
2021/11/15 03:53:18;;;;;;;40.00;18.65;;;;;;;5.52;100.00;102149.88;1628727;85;26122;-84
2021/11/15 03:55:45;;;;;;;41.90;19.85;;;;;;;5.52;100.00;102151.20;1673539;85;26013;-84
2021/11/15 03:58:12;;;;;;;43.80;20.05;;;;;;;5.57;100.00;102156.17;1623932;86;27573;-84
2021/11/15 04:00:41;;;;;;;45.12;21.37;;;;;;;5.61;100.00;102157.16;1659531;85;25835;-84
2021/11/15 04:03:20;;;;;;;45.38;20.08;;;;;;;5.64;100.00;102159.59;1644351;85;25899;-84
2021/11/15 04:05:51;;;;;;;42.60;19.77;;;;;;;5.67;100.00;102156.68;1658945;85;25839;-84
2021/11/15 04:08:17;;;;;;;46.55;24.63;;;;;;;5.70;100.00;102155.61;1641961;85;26207;-84
2021/11/15 04:10:45;;;;;;;49.03;23.35;;;;;;;5.73;100.00;102157.53;1641225;85;27484;-84
2021/11/15 04:13:24;;;;;;;47.55;24.63;;;;;;;5.78;100.00;102159.84;1653400;85;25891;-84
2021/11/15 04:15:55;;;;;;;49.50;20.85;;;;;;;5.81;100.00;102161.80;1669331;85;26055;-84
2021/11/15 04:18:26;;;;;;;40.92;20.70;;;;;;;5.83;100.00;102166.52;1640183;85;25769;-84
2021/11/15 04:20:56;;;;;;;51.35;26.57;;;;;;;5.85;99.98;102165.95;1614633;86;25869;-83
2021/11/15 04:23:23;;;;;;;45.50;22.98;;;;;;;5.88;99.95;102168.35;1656580;85;26936;-83
2021/11/15 04:25:50;;;;;;;43.58;22.58;;;;;;;5.91;99.89;102169.94;1634876;86;25942;-84
2021/11/15 04:28:17;;;;;;;54.95;29.60;;;;;;;5.92;99.84;102171.14;1636479;85;25916;-83
2021/11/15 04:30:45;;;;;;;60.28;29.87;;;;;;;5.93;99.60;102172.84;1614439;85;45657;-82
2021/11/15 04:33:12;;;;;;;62.98;32.75;;;;;;;5.92;99.40;102178.30;1613849;85;25988;-84
2021/11/15 04:35:39;;;;;;;67.27;35.25;;;;;;;5.92;99.26;102179.12;1676735;84;27482;-84
2021/11/15 04:38:08;;;;;;;75.25;37.28;;;;;;;5.91;99.21;102176.58;1674075;84;25941;-83
2021/11/15 04:40:37;;;;;;;75.35;36.05;;;;;;;5.91;99.02;102175.25;1614857;86;25879;-84
2021/11/15 04:43:04;;;;;;;80.62;37.98;;;;;;;5.90;98.87;102178.89;1617655;85;26500;-83
2021/11/15 04:45:31;;;;;;;79.58;38.83;;;;;;;5.88;98.78;102176.84;1674009;85;25749;-85
2021/11/15 04:47:58;;;;;;;75.28;37.53;;;;;;;5.88;98.76;102179.50;1680576;84;27555;-84
2021/11/15 04:50:26;;;;;;;73.30;37.00;;;;;;;5.87;98.67;102176.45;1630326;84;25381;-83
2021/11/15 04:52:53;;;;;;;75.35;38.08;;;;;;;5.87;98.62;102180.45;1658546;84;25820;-84
2021/11/15 04:55:23;;;;;;;72.27;37.73;;;;;;;5.86;98.58;102175.61;1674485;84;25878;-84
2021/11/15 04:57:53;;;;;;;79.83;39.07;;;;;;;5.87;98.54;102175.98;1674149;84;26488;-84
2021/11/15 05:00:25;;;;;;;85.38;40.30;;;;;;;5.88;98.53;102176.33;1640920;84;28167;-84
2021/11/15 05:02:53;;;;;;;79.05;38.17;;;;;;;5.89;98.46;102179.37;1607592;85;25893;-84
2021/11/15 05:05:21;;;;;;;78.07;39.78;;;;;;;5.91;98.42;102180.57;1653847;85;26024;-84
2021/11/15 05:07:54;;;;;;;77.42;39.67;;;;;;;5.92;98.40;102184.44;1670369;84;26589;-83
2021/11/15 05:10:24;;;;;;;78.17;38.40;;;;;;;5.94;98.40;102185.19;1632216;86;26052;-84
2021/11/15 05:12:51;;;;;;;74.62;37.55;;;;;;;5.94;98.20;102184.34;1637802;85;28283;-83
2021/11/15 05:15:19;;;;;;;79.87;40.63;;;;;;;5.93;98.10;102188.80;1657787;86;25338;-83
2021/11/15 05:17:51;;;;;;;99.58;47.98;;;;;;;5.94;98.17;102192.31;1663918;85;25799;-83
2021/11/15 05:20:20;;;;;;;99.32;50.48;;;;;;;5.95;98.22;102193.99;1623352;86;25873;-83
2021/11/15 05:22:48;;;;;;;91.63;46.70;;;;;;;5.96;98.19;102195.23;1622358;85;25800;-83
2021/11/15 05:25:18;;;;;;;90.95;47.17;;;;;;;5.97;98.07;102194.72;1664176;85;27530;-84
2021/11/15 05:27:45;;;;;;;96.90;47.80;;;;;;;5.96;98.07;102202.35;1662203;86;26238;-84
2021/11/15 05:30:17;;;;;;;110.57;59.20;;;;;;;5.97;98.01;102200.04;1631593;85;25949;-84
2021/11/15 05:32:44;;;;;;;102.67;54.83;;;;;;;6.00;98.06;102205.14;1619123;84;25807;-83
2021/11/15 05:35:12;;;;;;;91.65;45.38;;;;;;;6.00;98.03;102212.64;1663019;85;25770;-83
2021/11/15 05:37:39;;;;;;;98.42;49.23;;;;;;;5.98;97.93;102213.25;1658027;85;28123;-83
2021/11/15 05:40:08;;;;;;;100.78;50.88;;;;;;;5.99;97.92;102218.05;1617241;86;26566;-83
2021/11/15 05:42:36;;;;;;;101.78;49.58;;;;;;;6.01;98.02;102224.10;1644024;86;26648;-84
2021/11/15 05:45:07;;;;;;;103.45;52.05;;;;;;;6.01;97.95;102221.44;1664901;85;25930;-83
2021/11/15 05:47:35;;;;;;;100.35;48.48;;;;;;;6.02;97.89;102227.14;1662045;85;25954;-82
2021/11/15 05:50:05;;;;;;;98.45;49.93;;;;;;;6.02;97.86;102227.14;1625262;86;27612;-83
2021/11/15 05:52:33;;;;;;;96.20;49.90;;;;;;;6.02;97.85;102228.47;1621597;86;25855;-84
2021/11/15 05:55:00;;;;;;;110.30;56.13;;;;;;;6.03;97.79;102235.50;1632642;86;25859;-83
2021/11/15 05:57:28;;;;;;;101.18;54.80;;;;;;;6.02;97.81;102232.47;1662038;85;25822;-84
2021/11/15 05:59:55;;;;;;;92.33;48.92;;;;;;;6.04;97.86;102236.70;1633935;86;26571;-84
2021/11/15 06:02:22;;;;;;;99.45;52.15;;;;;;;6.04;97.75;102234.05;1628031;85;27613;-84
2021/11/15 06:04:49;;;;;;;87.95;45.95;;;;;;;6.04;97.78;102239.37;1628088;86;25995;-83
2021/11/15 06:07:16;;;;;;;98.07;51.70;;;;;;;6.06;97.80;102237.91;1662681;85;25988;-83
2021/11/15 06:09:43;;;;;;;93.25;49.80;;;;;;;6.08;97.73;102243.95;1653441;85;25866;-84
2021/11/15 06:12:10;;;;;;;90.38;48.55;;;;;;;6.08;97.72;102242.63;1626901;85;26010;-83
2021/11/15 06:14:37;;;;;;;84.00;47.00;;;;;;;6.07;97.64;102243.10;1659604;85;27579;-84
2021/11/15 06:17:05;;;;;;;84.32;46.18;;;;;;;6.07;97.61;102248.42;1669386;85;25923;-83
2021/11/15 06:19:32;;;;;;;100.67;53.17;;;;;;;6.07;97.65;102248.42;1652722;85;25891;-84
2021/11/15 06:22:00;;;;;;;123.45;59.65;;;;;;;6.08;97.68;102249.28;1628550;86;26421;-83
2021/11/15 06:24:27;;;;;;;114.28;59.27;;;;;;;6.09;97.73;102250.98;1618898;86;26550;-83
2021/11/15 06:26:54;;;;;;;120.55;63.15;;;;;;;6.09;97.67;102249.15;1666155;84;27643;-83
2021/11/15 06:29:21;;;;;;;85.55;47.83;;;;;;;6.11;97.68;102254.38;1650287;84;25815;-83
2021/11/15 06:31:49;;;;;;;80.22;44.20;;;;;;;6.10;97.54;102259.31;1634461;86;25850;-83
2021/11/15 06:34:16;;;;;;;83.25;47.50;;;;;;;6.08;97.39;102262.58;1652475;84;25861;-84
2021/11/15 06:36:43;;;;;;;69.58;37.23;;;;;;;6.04;97.41;102269.95;1668159;85;25953;-83
2021/11/15 06:39:10;;;;;;;80.57;43.98;;;;;;;6.04;97.49;102267.77;1650454;86;27335;-84
2021/11/15 06:41:37;;;;;;;72.22;36.23;;;;;;;6.02;97.55;102273.22;1622569;86;25909;-85
2021/11/15 06:44:07;;;;;;;73.17;36.35;;;;;;;6.02;97.57;102277.68;1612530;84;25876;-83
2021/11/15 06:46:34;;;;;;;76.02;40.30;;;;;;;6.02;97.59;102275.02;1674147;85;26502;-83
2021/11/15 06:49:02;;;;;;;82.25;43.58;;;;;;;6.02;97.74;102274.55;1664718;84;25846;-84
2021/11/15 06:51:29;;;;;;;71.20;37.83;;;;;;;6.03;97.92;102278.06;1641344;85;27650;-83
2021/11/15 06:53:56;;;;;;;74.80;37.17;;;;;;;6.02;97.85;102282.53;1659294;85;26017;-84
2021/11/15 06:56:23;;;;;;;74.37;33.35;;;;;;;6.00;97.79;102277.81;1677294;84;25999;-83
2021/11/15 06:58:50;;;;;;;84.50;34.73;;;;;;;5.94;97.77;102272.11;1668847;84;26276;-83
2021/11/15 07:01:17;;;;;;;84.77;32.50;;;;;;;5.93;97.93;102274.38;1610284;85;25816;-83
2021/11/15 07:03:44;;;;;;;83.62;34.58;;;;;;;5.91;98.05;102280.30;1652901;86;27601;-83
2021/11/15 07:06:11;;;;;;;97.02;34.58;;;;;;;5.91;98.16;102287.80;1642167;86;25770;-83
2021/11/15 07:08:39;;;;;;;104.30;36.60;;;;;;;5.90;98.18;102283.44;1655566;84;25529;-83
2021/11/15 07:11:06;;;;;;;92.22;32.08;;;;;;;5.92;98.28;102282.84;1604104;86;26497;-83
2021/11/15 07:13:33;;;;;;;86.65;33.78;;;;;;;5.91;98.16;102284.29;1632850;86;26071;-83
2021/11/15 07:16:00;;;;;;;93.60;32.30;;;;;;;5.89;98.19;102284.89;1660043;85;27587;-83
2021/11/15 07:18:28;;;;;;;84.25;29.55;;;;;;;5.89;98.35;102292.87;1641649;84;25879;-83
2021/11/15 07:20:55;;;;;;;91.05;33.75;;;;;;;5.88;98.27;102289.86;1624772;85;25887;-83
2021/11/15 07:23:23;;;;;;;81.65;30.62;;;;;;;5.86;98.28;102289.95;1640095;84;25848;-83
2021/11/15 07:25:50;;;;;;;91.87;33.88;;;;;;;5.84;98.33;102290.55;1678952;84;25862;-84
2021/11/15 07:28:18;;;;;;;92.27;38.28;;;;;;;5.84;98.38;102293.21;1644745;86;27492;-84
2021/11/15 07:30:45;;;;;;;89.52;33.95;;;;;;;5.86;98.40;102285.14;1623919;85;25817;-83
2021/11/15 07:33:13;;;;;;;117.95;43.80;;;;;;;5.85;98.30;102292.27;1652575;85;25850;-82
2021/11/15 07:35:40;;;;;;;106.65;37.63;;;;;;;5.81;98.19;102281.45;1669104;85;26453;-82
2021/11/15 07:38:07;;;;;;;126.27;44.83;;;;;;;5.80;98.35;102287.73;1653467;86;26310;-83
2021/11/15 07:40:34;;;;;;;116.80;43.73;;;;;;;5.79;98.33;102288.70;1596735;86;27722;-83
2021/11/15 07:43:01;;;;;;;130.95;47.27;;;;;;;5.81;98.35;102285.45;1640699;85;26052;-84
2021/11/15 07:45:28;;;;;;;115.30;43.30;;;;;;;5.81;98.37;102284.13;1667040;85;25882;-83
2021/11/15 07:47:55;;;;;;;120.82;44.58;;;;;;;5.81;98.35;102289.44;1652171;86;26616;-83
2021/11/15 07:50:23;;;;;;;122.85;45.98;;;;;;;5.81;98.45;102284.13;1596278;86;25866;-83
2021/11/15 07:52:50;;;;;;;124.53;45.45;;;;;;;5.82;98.46;102291.59;1641568;86;27598;-83
2021/11/15 07:55:17;;;;;;;117.97;43.13;;;;;;;5.81;98.34;102290.77;1654264;86;25744;-84
2021/11/15 07:57:45;;;;;;;131.27;46.65;;;;;;;5.82;98.44;102290.26;1637714;86;25763;-83
2021/11/15 08:00:17;;;;;;;106.32;39.48;;;;;;;5.84;98.49;102287.03;1624486;85;25842;-83
2021/11/15 08:02:45;;;;;;;124.62;45.45;;;;;;;5.84;98.34;102285.70;1650332;86;26288;-83
2021/11/15 08:05:16;;;;;;;117.40;42.75;;;;;;;5.81;98.29;102284.59;1654895;85;28204;-83
2021/11/15 08:07:44;;;;;;;126.12;43.30;;;;;;;5.80;98.35;102291.72;1650362;86;25892;-83
2021/11/15 08:10:14;;;;;;;127.35;45.20;;;;;;;5.83;98.51;102293.30;1604303;85;25866;-83
2021/11/15 08:12:45;;;;;;;121.05;44.27;;;;;;;5.84;98.50;102291.88;1627688;86;26744;-83
2021/11/15 08:15:16;;;;;;;125.75;46.58;;;;;;;5.83;98.38;102287.52;1656587;86;25867;-83
2021/11/15 08:17:48;;;;;;;135.30;49.42;;;;;;;5.84;98.32;102295.02;1630138;86;28352;-83
2021/11/15 08:20:20;;;;;;;118.15;46.83;;;;;;;5.83;98.34;102294.16;1628004;86;25705;-83
2021/11/15 08:22:51;;;;;;;115.22;44.35;;;;;;;5.83;98.21;102291.50;1634662;86;25873;-83
2021/11/15 08:25:51;;;;;;;124.47;45.28;;;;;;;5.82;98.27;102296.44;1661950;86;25733;-84
2021/11/15 08:28:20;;;;;;;133.70;46.65;;;;;;;5.83;98.33;102294.63;1654321;85;25373;-83
2021/11/15 08:30:47;;;;;;;121.62;44.65;;;;;;;5.82;98.30;102292.45;1622039;86;27712;-83
2021/11/15 08:33:14;;;;;;;127.50;46.18;;;;;;;5.83;98.23;102291.97;1653985;85;26230;-83
2021/11/15 08:35:42;;;;;;;129.53;48.55;;;;;;;5.84;98.32;102298.53;1605983;86;25871;-83
2021/11/15 08:38:49;;;;;;;126.47;47.65;;;;;;;5.85;98.19;102300.72;1631152;85;25724;-86
2021/11/15 08:41:22;;;;;;;103.53;42.38;;;;;;;5.87;98.14;102302.77;1632220;85;25974;-83
2021/11/15 08:43:51;;;;;;;114.70;44.70;;;;;;;5.86;98.11;102301.92;1640485;86;27472;-83
2021/11/15 08:46:19;;;;;;;125.40;46.65;;;;;;;5.86;98.04;102305.91;1663593;85;25810;-84
2021/11/15 08:48:48;;;;;;;126.80;47.98;;;;;;;5.87;98.11;102302.77;1649936;85;26532;-82
2021/11/15 08:51:17;;;;;;;120.87;44.25;;;;;;;5.88;98.05;102301.83;1618465;85;26106;-83
2021/11/15 08:53:46;;;;;;;111.72;43.80;;;;;;;5.90;98.12;102299.90;1665106;84;26266;-83
2021/11/15 08:56:14;;;;;;;112.90;46.90;;;;;;;5.91;98.02;102301.11;1643358;86;27118;-83
2021/11/15 08:58:41;;;;;;;107.87;45.45;;;;;;;5.93;97.99;102303.16;1662732;84;25934;-83
2021/11/15 09:01:09;;;;;;;118.50;44.55;;;;;;;5.93;97.81;102300.50;1637038;84;25915;-83
2021/11/15 09:03:39;;;;;;;112.55;47.65;;;;;;;5.93;97.60;102304.50;1644108;84;26509;-83
2021/11/15 09:06:08;;;;;;;108.25;46.75;;;;;;;5.94;97.63;102302.22;1670289;85;26288;-82
2021/11/15 09:08:37;;;;;;;124.07;48.28;;;;;;;5.93;97.62;102301.83;1667307;84;26616;-82
2021/11/15 09:11:06;;;;;;;109.90;47.50;;;;;;;5.92;97.49;102304.11;1643289;84;26040;-83
2021/11/15 09:13:34;;;;;;;115.92;43.95;;;;;;;5.90;97.33;102310.03;1675456;84;25946;-83
2021/11/15 09:16:01;;;;;;;98.70;42.95;;;;;;;5.89;97.29;102308.83;1663014;85;25892;-83
2021/11/15 09:18:28;;;;;;;104.03;43.80;;;;;;;5.88;97.27;102308.47;1644851;85;25820;-83
2021/11/15 09:20:57;;;;;;;105.80;43.02;;;;;;;5.88;97.27;102305.31;1593298;86;27508;-84
2021/11/15 09:23:24;;;;;;;99.60;41.98;;;;;;;5.91;97.37;102306.90;1635899;86;25974;-83
2021/11/15 09:25:52;;;;;;;97.50;42.03;;;;;;;5.92;97.36;102310.76;1630825;86;25390;-83
2021/11/15 09:28:20;;;;;;;105.17;39.08;;;;;;;5.95;97.46;102309.69;1666777;85;26267;-83
2021/11/15 09:30:48;;;;;;;108.22;41.55;;;;;;;5.95;97.41;102314.53;1666669;85;25791;-83
2021/11/15 09:33:16;;;;;;;98.37;42.33;;;;;;;5.95;97.38;102307.03;1625555;86;27592;-83
2021/11/15 09:35:48;;;;;;;98.10;41.80;;;;;;;5.97;97.33;102307.77;1594919;86;25923;-83
2021/11/15 09:38:12;;;;;;;89.85;38.70;;;;;;;5.96;96.94;102302.09;1663978;85;25297;-82
2021/11/15 09:40:38;;;;;;;91.20;38.48;;;;;;;5.95;96.98;102302.56;1662685;85;25851;-83
2021/11/15 09:43:06;;;;;;;100.78;45.33;;;;;;;5.94;96.96;102302.69;1608221;85;25910;-83
2021/11/15 09:45:33;;;;;;;94.25;40.40;;;;;;;5.93;97.03;102303.16;1605572;86;27339;-84
2021/11/15 09:48:01;;;;;;;85.75;36.80;;;;;;;5.94;97.06;102307.53;1654481;86;26509;-83
2021/11/15 09:50:28;;;;;;;87.12;37.88;;;;;;;5.95;97.15;102309.22;1659592;85;25861;-83
2021/11/15 09:52:55;;;;;;;80.60;37.93;;;;;;;5.96;97.12;102303.42;1627399;86;26547;-83
2021/11/15 09:55:22;;;;;;;82.17;38.00;;;;;;;5.98;97.30;102301.02;1610503;85;25370;-83
2021/11/15 09:57:50;;;;;;;88.12;38.80;;;;;;;6.02;97.34;102307.80;1666130;85;27538;-83
2021/11/15 10:00:22;;;;;;;79.10;36.30;;;;;;;6.05;97.22;102301.41;1656696;84;25867;-83
2021/11/15 10:02:50;;;;;;;86.97;37.33;;;;;;;6.04;96.92;102298.36;1639471;84;25894;-84
2021/11/15 10:05:19;;;;;;;75.90;34.60;;;;;;;6.04;97.02;102304.54;1639491;84;25900;-82
2021/11/15 10:07:51;;;;;;;81.97;37.67;;;;;;;6.06;96.81;102310.59;1673711;84;25842;-83
2021/11/15 10:10:29;;;;;;;80.92;38.83;;;;;;;6.05;96.77;102300.89;1663053;84;27403;-83
2021/11/15 10:13:21;;;;;;;87.15;39.50;;;;;;;6.06;96.68;102305.73;1631369;86;25937;-83
2021/11/15 10:16:12;;;;;;;70.50;35.63;;;;;;;6.07;96.71;102300.30;1625003;86;26283;-84
2021/11/15 10:19:04;;;;;;;75.45;36.05;;;;;;;6.11;96.69;102301.79;1662462;84;25893;-83
2021/11/15 10:21:36;;;;;;;67.20;33.88;;;;;;;6.11;96.41;102309.77;1672861;85;25968;-83
2021/11/15 10:24:11;;;;;;;71.37;34.30;;;;;;;6.10;96.15;102304.55;1625451;86;27505;-83
2021/11/15 10:26:48;;;;;;;69.97;33.38;;;;;;;6.09;96.33;102309.00;1605306;86;25906;-83
2021/11/15 10:29:35;;;;;;;73.33;34.67;;;;;;;6.11;96.42;102303.59;1664450;84;25853;-83
2021/11/15 10:32:09;;;;;;;75.80;35.70;;;;;;;6.11;96.43;102307.11;1665523;85;25897;-83
2021/11/15 10:34:53;;;;;;;73.22;35.25;;;;;;;6.13;96.69;102306.98;1619566;85;25415;-83
2021/11/15 10:37:28;;;;;;;66.37;32.85;;;;;;;6.17;96.59;102308.44;1649828;86;27367;-83
2021/11/15 10:40:06;;;;;;;71.00;35.15;;;;;;;6.17;96.48;102309.77;1669231;84;25835;-83
2021/11/15 10:42:41;;;;;;;69.77;34.20;;;;;;;6.17;96.49;102307.97;1665882;84;25580;-82
2021/11/15 10:45:13;;;;;;;66.77;34.00;;;;;;;6.17;96.19;102310.63;1648379;84;26563;-83
2021/11/15 10:47:54;;;;;;;62.43;31.42;;;;;;;6.16;96.20;102308.06;1617212;85;25775;-82
2021/11/15 10:53:24;;;;;;;61.18;29.63;;;;;;;6.10;95.84;102298.75;1658563;86;25928;-83
2021/11/15 10:56:15;;;;;;;60.55;31.20;;;;;;;6.14;95.88;102304.20;1623785;86;25375;-83
2021/11/15 10:58:47;;;;;;;64.05;32.58;;;;;;;6.17;95.97;102293.81;1628569;85;26070;-83
2021/11/15 11:01:16;;;;;;;57.30;30.23;;;;;;;6.21;96.17;102300.59;1667433;85;26237;-83
2021/11/15 11:03:44;;;;;;;53.70;29.42;;;;;;;6.26;96.07;102297.10;1662311;85;27598;-83
2021/11/15 11:06:16;;;;;;;58.95;30.77;;;;;;;6.26;95.67;102299.77;1629755;85;25957;-83
2021/11/15 11:08:45;;;;;;;;;;;;;;;6.26;95.61;102297.58;1671128;85;25863;-83
2021/11/15 11:11:31;;;;;;;54.40;27.73;;;;;;;6.27;95.57;102296.59;1663027;85;25950;-83
2021/11/15 11:14:09;;;;;;;65.67;30.27;;;;;;;6.22;95.47;102296.98;1638931;86;25454;-83
2021/11/15 11:16:51;;;;;;;64.62;31.70;;;;;;;6.23;95.46;102289.34;1604416;85;27626;-84
2021/11/15 11:19:31;;;;;;;63.08;31.87;;;;;;;6.22;95.10;102291.14;1636714;85;25927;-83
2021/11/15 11:27:17;;;;;;;60.65;30.90;;;;;;;6.26;95.31;102281.14;1629482;84;25851;-84
2021/11/15 11:29:49;;;;;;;62.00;31.20;;;;;;;6.30;95.37;102288.39;1639172;86;26861;-84
2021/11/15 11:32:24;;;;;;;61.88;32.50;;;;;;;6.29;95.01;102280.88;1663458;86;25905;-83
2021/11/15 11:34:55;;;;;;;54.30;29.10;;;;;;;6.30;95.12;102287.06;1638876;86;25824;-83